sensor_id;sensor_type;location;lat;lon;timestamp;P1;durP1;ratioP1;P2;durP2;ratioP2
44098;SDS011;29762;50.086;14.364;2022-07-12T00:02:02;0.95;;;0.38;;
44098;SDS011;29762;50.086;14.364;2022-07-12T00:07:21;0.85;;;0.55;;
44098;SDS011;29762;50.086;14.364;2022-07-12T00:12:41;1.20;;;0.63;;
44098;SDS011;29762;50.086;14.364;2022-07-12T00:18:00;1.15;;;0.47;;
44098;SDS011;29762;50.086;14.364;2022-07-12T00:23:20;0.63;;;0.60;;
44098;SDS011;29762;50.086;14.364;2022-07-12T00:28:39;0.50;;;0.50;;
44098;SDS011;29762;50.086;14.364;2022-07-12T00:33:59;0.30;;;0.30;;
44098;SDS011;29762;50.086;14.364;2022-07-12T00:39:19;0.90;;;0.50;;
44098;SDS011;29762;50.086;14.364;2022-07-12T00:44:39;0.40;;;0.38;;
44098;SDS011;29762;50.086;14.364;2022-07-12T00:49:58;0.43;;;0.43;;
44098;SDS011;29762;50.086;14.364;2022-07-12T00:55:19;0.60;;;0.40;;
44098;SDS011;29762;50.086;14.364;2022-07-12T01:00:39;0.70;;;0.50;;
44098;SDS011;29762;50.086;14.364;2022-07-12T01:05:59;0.63;;;0.45;;
44098;SDS011;29762;50.086;14.364;2022-07-12T01:11:18;1.10;;;0.52;;
44098;SDS011;29762;50.086;14.364;2022-07-12T01:16:38;1.15;;;0.60;;
44098;SDS011;29762;50.086;14.364;2022-07-12T01:21:58;0.75;;;0.60;;
44098;SDS011;29762;50.086;14.364;2022-07-12T01:27:19;0.50;;;0.50;;
44098;SDS011;29762;50.086;14.364;2022-07-12T01:32:38;0.63;;;0.50;;
44098;SDS011;29762;50.086;14.364;2022-07-12T01:37:58;0.95;;;0.50;;
44098;SDS011;29762;50.086;14.364;2022-07-12T01:43:18;0.57;;;0.40;;
44098;SDS011;29762;50.086;14.364;2022-07-12T01:48:38;0.40;;;0.40;;
44098;SDS011;29762;50.086;14.364;2022-07-12T01:53:57;0.50;;;0.50;;
44098;SDS011;29762;50.086;14.364;2022-07-12T01:59:16;0.47;;;0.47;;
44098;SDS011;29762;50.086;14.364;2022-07-12T02:04:36;0.60;;;0.60;;
44098;SDS011;29762;50.086;14.364;2022-07-12T02:09:56;0.55;;;0.55;;
44098;SDS011;29762;50.086;14.364;2022-07-12T02:15:16;0.50;;;0.50;;
44098;SDS011;29762;50.086;14.364;2022-07-12T02:20:36;0.63;;;0.63;;
44098;SDS011;29762;50.086;14.364;2022-07-12T02:25:56;2.08;;;0.50;;
44098;SDS011;29762;50.086;14.364;2022-07-12T02:31:15;0.50;;;0.50;;
44098;SDS011;29762;50.086;14.364;2022-07-12T02:36:35;0.68;;;0.50;;
44098;SDS011;29762;50.086;14.364;2022-07-12T02:41:54;0.50;;;0.50;;
44098;SDS011;29762;50.086;14.364;2022-07-12T02:47:13;0.50;;;0.50;;
44098;SDS011;29762;50.086;14.364;2022-07-12T02:52:33;0.50;;;0.50;;
44098;SDS011;29762;50.086;14.364;2022-07-12T02:57:53;0.73;;;0.60;;
44098;SDS011;29762;50.086;14.364;2022-07-12T03:03:12;0.40;;;0.40;;
44098;SDS011;29762;50.086;14.364;2022-07-12T03:08:32;0.50;;;0.50;;
44098;SDS011;29762;50.086;14.364;2022-07-12T03:13:52;0.77;;;0.70;;
44098;SDS011;29762;50.086;14.364;2022-07-12T03:19:11;0.50;;;0.50;;
44098;SDS011;29762;50.086;14.364;2022-07-12T03:24:31;0.50;;;0.50;;
44098;SDS011;29762;50.086;14.364;2022-07-12T03:29:50;0.55;;;0.50;;
44098;SDS011;29762;50.086;14.364;2022-07-12T03:35:09;0.50;;;0.50;;
44098;SDS011;29762;50.086;14.364;2022-07-12T03:40:30;0.57;;;0.55;;
44098;SDS011;29762;50.086;14.364;2022-07-12T03:45:50;0.50;;;0.50;;
44098;SDS011;29762;50.086;14.364;2022-07-12T03:51:10;0.40;;;0.40;;
44098;SDS011;29762;50.086;14.364;2022-07-12T03:56:30;0.45;;;0.45;;
44098;SDS011;29762;50.086;14.364;2022-07-12T04:02:08;0.50;;;0.50;;
44098;SDS011;29762;50.086;14.364;2022-07-12T04:07:28;0.55;;;0.55;;
44098;SDS011;29762;50.086;14.364;2022-07-12T04:12:47;1.30;;;0.60;;
44098;SDS011;29762;50.086;14.364;2022-07-12T04:18:07;0.68;;;0.60;;
44098;SDS011;29762;50.086;14.364;2022-07-12T04:23:26;0.50;;;0.50;;
44098;SDS011;29762;50.086;14.364;2022-07-12T04:28:46;0.50;;;0.50;;
44098;SDS011;29762;50.086;14.364;2022-07-12T04:34:05;1.75;;;0.55;;
44098;SDS011;29762;50.086;14.364;2022-07-12T04:39:24;0.55;;;0.55;;
44098;SDS011;29762;50.086;14.364;2022-07-12T04:44:44;0.60;;;0.60;;
44098;SDS011;29762;50.086;14.364;2022-07-12T04:50:05;0.60;;;0.60;;
44098;SDS011;29762;50.086;14.364;2022-07-12T04:55:27;2.08;;;0.70;;
44098;SDS011;29762;50.086;14.364;2022-07-12T05:00:47;1.50;;;1.10;;
44098;SDS011;29762;50.086;14.364;2022-07-12T05:06:06;3.33;;;1.15;;
44098;SDS011;29762;50.086;14.364;2022-07-12T05:11:26;2.03;;;1.23;;
44098;SDS011;29762;50.086;14.364;2022-07-12T05:16:45;2.08;;;1.40;;
44098;SDS011;29762;50.086;14.364;2022-07-12T05:22:04;2.38;;;1.20;;
44098;SDS011;29762;50.086;14.364;2022-07-12T05:27:24;3.03;;;1.30;;
44098;SDS011;29762;50.086;14.364;2022-07-12T05:32:44;2.38;;;1.13;;
44098;SDS011;29762;50.086;14.364;2022-07-12T05:38:03;3.15;;;1.20;;
44098;SDS011;29762;50.086;14.364;2022-07-12T05:43:22;3.08;;;1.23;;
44098;SDS011;29762;50.086;14.364;2022-07-12T05:48:41;3.28;;;1.25;;
44098;SDS011;29762;50.086;14.364;2022-07-12T05:54:01;2.60;;;1.27;;
44098;SDS011;29762;50.086;14.364;2022-07-12T05:59:20;2.42;;;1.27;;
44098;SDS011;29762;50.086;14.364;2022-07-12T06:04:39;3.67;;;1.30;;
44098;SDS011;29762;50.086;14.364;2022-07-12T06:09:59;2.67;;;1.40;;
44098;SDS011;29762;50.086;14.364;2022-07-12T06:15:19;2.35;;;1.20;;
44098;SDS011;29762;50.086;14.364;2022-07-12T06:20:38;2.53;;;1.30;;
44098;SDS011;29762;50.086;14.364;2022-07-12T06:25:58;3.42;;;1.52;;
44098;SDS011;29762;50.086;14.364;2022-07-12T06:31:17;2.85;;;1.38;;
44098;SDS011;29762;50.086;14.364;2022-07-12T06:36:37;4.20;;;1.73;;
44098;SDS011;29762;50.086;14.364;2022-07-12T06:41:56;9.60;;;2.72;;
44098;SDS011;29762;50.086;14.364;2022-07-12T06:47:15;9.18;;;2.80;;
44098;SDS011;29762;50.086;14.364;2022-07-12T06:52:35;13.15;;;4.10;;
44098;SDS011;29762;50.086;14.364;2022-07-12T06:57:55;17.00;;;4.88;;
44098;SDS011;29762;50.086;14.364;2022-07-12T07:03:15;11.02;;;3.75;;
44098;SDS011;29762;50.086;14.364;2022-07-12T07:08:34;8.25;;;2.97;;
44098;SDS011;29762;50.086;14.364;2022-07-12T07:13:53;9.65;;;3.55;;
44098;SDS011;29762;50.086;14.364;2022-07-12T07:19:14;10.27;;;3.53;;
44098;SDS011;29762;50.086;14.364;2022-07-12T07:24:33;9.90;;;3.15;;
44098;SDS011;29762;50.086;14.364;2022-07-12T07:29:53;7.35;;;2.88;;
44098;SDS011;29762;50.086;14.364;2022-07-12T07:35:31;5.97;;;2.70;;
44098;SDS011;29762;50.086;14.364;2022-07-12T07:40:50;7.95;;;2.70;;
44098;SDS011;29762;50.086;14.364;2022-07-12T07:46:09;6.22;;;2.35;;
44098;SDS011;29762;50.086;14.364;2022-07-12T07:51:29;6.90;;;2.50;;
44098;SDS011;29762;50.086;14.364;2022-07-12T07:56:49;7.10;;;2.55;;
44098;SDS011;29762;50.086;14.364;2022-07-12T08:02:10;8.02;;;3.20;;
44098;SDS011;29762;50.086;14.364;2022-07-12T08:07:30;6.30;;;2.75;;
44098;SDS011;29762;50.086;14.364;2022-07-12T08:12:50;4.60;;;2.35;;
44098;SDS011;29762;50.086;14.364;2022-07-12T08:18:09;6.00;;;2.90;;
44098;SDS011;29762;50.086;14.364;2022-07-12T08:23:29;5.95;;;2.30;;
44098;SDS011;29762;50.086;14.364;2022-07-12T08:28:48;4.70;;;2.00;;
44098;SDS011;29762;50.086;14.364;2022-07-12T08:34:08;4.60;;;2.30;;
44098;SDS011;29762;50.086;14.364;2022-07-12T08:39:28;4.30;;;1.90;;
44098;SDS011;29762;50.086;14.364;2022-07-12T08:44:53;5.10;;;2.20;;
44098;SDS011;29762;50.086;14.364;2022-07-12T08:50:19;4.25;;;1.98;;
44098;SDS011;29762;50.086;14.364;2022-07-12T08:55:39;4.22;;;1.85;;
44098;SDS011;29762;50.086;14.364;2022-07-12T09:00:59;4.53;;;1.90;;
44098;SDS011;29762;50.086;14.364;2022-07-12T09:06:19;3.42;;;1.75;;
44098;SDS011;29762;50.086;14.364;2022-07-12T09:11:41;3.95;;;1.90;;
44098;SDS011;29762;50.086;14.364;2022-07-12T09:17:07;2.95;;;1.60;;
44098;SDS011;29762;50.086;14.364;2022-07-12T09:22:32;2.95;;;1.85;;
44098;SDS011;29762;50.086;14.364;2022-07-12T09:27:55;4.75;;;1.88;;
44098;SDS011;29762;50.086;14.364;2022-07-12T09:33:19;2.80;;;1.60;;
44098;SDS011;29762;50.086;14.364;2022-07-12T09:38:58;4.65;;;1.92;;
44098;SDS011;29762;50.086;14.364;2022-07-12T09:44:21;4.03;;;1.73;;
44098;SDS011;29762;50.086;14.364;2022-07-12T09:49:43;3.88;;;1.75;;
44098;SDS011;29762;50.086;14.364;2022-07-12T09:55:03;5.68;;;1.63;;
44098;SDS011;29762;50.086;14.364;2022-07-12T10:00:22;4.38;;;1.80;;
44098;SDS011;29762;50.086;14.364;2022-07-12T10:05:42;4.18;;;1.80;;
44098;SDS011;29762;50.086;14.364;2022-07-12T10:11:02;4.85;;;2.00;;
44098;SDS011;29762;50.086;14.364;2022-07-12T10:16:25;3.03;;;1.70;;
44098;SDS011;29762;50.086;14.364;2022-07-12T10:21:49;3.42;;;1.60;;
44098;SDS011;29762;50.086;14.364;2022-07-12T10:32:35;3.55;;;1.75;;
44098;SDS011;29762;50.086;14.364;2022-07-12T10:38:13;4.00;;;1.80;;
44098;SDS011;29762;50.086;14.364;2022-07-12T10:43:36;4.07;;;1.52;;
44098;SDS011;29762;50.086;14.364;2022-07-12T10:49:24;3.20;;;1.60;;
44098;SDS011;29762;50.086;14.364;2022-07-12T11:00:16;2.65;;;1.40;;
44098;SDS011;29762;50.086;14.364;2022-07-12T11:05:36;4.22;;;1.60;;
44098;SDS011;29762;50.086;14.364;2022-07-12T11:10:58;2.88;;;1.55;;
44098;SDS011;29762;50.086;14.364;2022-07-12T11:16:18;2.60;;;1.42;;
44098;SDS011;29762;50.086;14.364;2022-07-12T11:21:38;2.90;;;1.42;;
44098;SDS011;29762;50.086;14.364;2022-07-12T11:26:58;2.45;;;1.50;;
44098;SDS011;29762;50.086;14.364;2022-07-12T11:32:19;2.63;;;1.65;;
44098;SDS011;29762;50.086;14.364;2022-07-12T11:37:53;2.13;;;1.40;;
44098;SDS011;29762;50.086;14.364;2022-07-12T11:43:14;2.95;;;1.42;;
44098;SDS011;29762;50.086;14.364;2022-07-12T11:48:34;3.63;;;1.67;;
44098;SDS011;29762;50.086;14.364;2022-07-12T11:53:54;2.78;;;1.30;;
44098;SDS011;29762;50.086;14.364;2022-07-12T11:59:21;2.67;;;1.33;;
44098;SDS011;29762;50.086;14.364;2022-07-12T12:15:36;4.65;;;2.00;;
44098;SDS011;29762;50.086;14.364;2022-07-12T12:20:59;5.50;;;1.80;;
44098;SDS011;29762;50.086;14.364;2022-07-12T12:26:24;4.20;;;1.80;;
44098;SDS011;29762;50.086;14.364;2022-07-12T12:31:55;5.78;;;2.00;;
44098;SDS011;29762;50.086;14.364;2022-07-12T12:37:17;4.47;;;1.98;;
44098;SDS011;29762;50.086;14.364;2022-07-12T12:42:36;3.50;;;1.63;;
44098;SDS011;29762;50.086;14.364;2022-07-12T12:47:59;4.60;;;1.50;;
44098;SDS011;29762;50.086;14.364;2022-07-12T12:53:21;1.85;;;1.33;;
44098;SDS011;29762;50.086;14.364;2022-07-12T12:58:43;3.47;;;1.33;;
44098;SDS011;29762;50.086;14.364;2022-07-12T13:04:02;3.13;;;1.27;;
44098;SDS011;29762;50.086;14.364;2022-07-12T13:09:22;5.65;;;1.45;;
44098;SDS011;29762;50.086;14.364;2022-07-12T13:14:42;3.25;;;1.35;;
44098;SDS011;29762;50.086;14.364;2022-07-12T13:20:01;3.35;;;1.77;;
44098;SDS011;29762;50.086;14.364;2022-07-12T13:25:22;2.42;;;1.25;;
44098;SDS011;29762;50.086;14.364;2022-07-12T13:30:41;3.58;;;1.50;;
44098;SDS011;29762;50.086;14.364;2022-07-12T13:36:01;3.85;;;1.52;;
44098;SDS011;29762;50.086;14.364;2022-07-12T13:41:20;3.10;;;1.45;;
44098;SDS011;29762;50.086;14.364;2022-07-12T13:46:39;4.55;;;1.63;;
44098;SDS011;29762;50.086;14.364;2022-07-12T13:51:59;6.07;;;1.60;;
44098;SDS011;29762;50.086;14.364;2022-07-12T13:57:20;2.60;;;1.35;;
44098;SDS011;29762;50.086;14.364;2022-07-12T14:02:40;2.78;;;1.30;;
44098;SDS011;29762;50.086;14.364;2022-07-12T14:08:00;3.67;;;1.60;;
44098;SDS011;29762;50.086;14.364;2022-07-12T14:13:20;4.75;;;1.70;;
44098;SDS011;29762;50.086;14.364;2022-07-12T14:18:40;2.47;;;1.50;;
44098;SDS011;29762;50.086;14.364;2022-07-12T14:23:59;2.90;;;1.35;;
44098;SDS011;29762;50.086;14.364;2022-07-12T14:29:19;4.78;;;1.60;;
44098;SDS011;29762;50.086;14.364;2022-07-12T14:34:39;2.78;;;1.33;;
44098;SDS011;29762;50.086;14.364;2022-07-12T14:39:59;2.00;;;1.17;;
44098;SDS011;29762;50.086;14.364;2022-07-12T14:45:19;3.03;;;1.42;;
44098;SDS011;29762;50.086;14.364;2022-07-12T14:50:38;2.70;;;1.40;;
44098;SDS011;29762;50.086;14.364;2022-07-12T14:55:58;3.35;;;1.30;;
44098;SDS011;29762;50.086;14.364;2022-07-12T15:01:18;2.05;;;1.20;;
44098;SDS011;29762;50.086;14.364;2022-07-12T15:06:37;3.17;;;1.08;;
44098;SDS011;29762;50.086;14.364;2022-07-12T15:11:57;3.13;;;1.13;;
44098;SDS011;29762;50.086;14.364;2022-07-12T15:17:17;2.72;;;1.10;;
44098;SDS011;29762;50.086;14.364;2022-07-12T15:22:38;3.00;;;1.10;;
44098;SDS011;29762;50.086;14.364;2022-07-12T15:27:58;1.15;;;1.00;;
44098;SDS011;29762;50.086;14.364;2022-07-12T15:33:17;2.15;;;1.00;;
44098;SDS011;29762;50.086;14.364;2022-07-12T15:38:37;2.33;;;1.00;;
44098;SDS011;29762;50.086;14.364;2022-07-12T15:43:57;1.13;;;0.80;;
44098;SDS011;29762;50.086;14.364;2022-07-12T15:49:18;1.27;;;0.85;;
44098;SDS011;29762;50.086;14.364;2022-07-12T15:54:37;1.10;;;0.88;;
44098;SDS011;29762;50.086;14.364;2022-07-12T15:59:57;1.48;;;0.75;;
44098;SDS011;29762;50.086;14.364;2022-07-12T16:05:16;1.98;;;0.70;;
44098;SDS011;29762;50.086;14.364;2022-07-12T16:10:36;0.88;;;0.70;;
44098;SDS011;29762;50.086;14.364;2022-07-12T16:15:56;0.85;;;0.60;;
44098;SDS011;29762;50.086;14.364;2022-07-12T16:21:15;0.70;;;0.70;;
44098;SDS011;29762;50.086;14.364;2022-07-12T16:26:38;0.60;;;0.60;;
44098;SDS011;29762;50.086;14.364;2022-07-12T16:32:01;1.10;;;0.80;;
44098;SDS011;29762;50.086;14.364;2022-07-12T16:37:21;2.15;;;0.85;;
44098;SDS011;29762;50.086;14.364;2022-07-12T16:42:41;2.45;;;0.70;;
44098;SDS011;29762;50.086;14.364;2022-07-12T16:48:01;2.00;;;0.90;;
44098;SDS011;29762;50.086;14.364;2022-07-12T16:53:20;2.45;;;0.80;;
44098;SDS011;29762;50.086;14.364;2022-07-12T16:58:40;2.72;;;0.95;;
44098;SDS011;29762;50.086;14.364;2022-07-12T17:04:01;1.92;;;0.70;;
44098;SDS011;29762;50.086;14.364;2022-07-12T17:09:21;3.45;;;0.70;;
44098;SDS011;29762;50.086;14.364;2022-07-12T17:14:42;1.50;;;0.80;;
44098;SDS011;29762;50.086;14.364;2022-07-12T17:20:02;1.85;;;0.63;;
44098;SDS011;29762;50.086;14.364;2022-07-12T17:25:22;0.93;;;0.50;;
44098;SDS011;29762;50.086;14.364;2022-07-12T17:30:42;1.25;;;0.50;;
44098;SDS011;29762;50.086;14.364;2022-07-12T17:36:02;1.60;;;0.70;;
44098;SDS011;29762;50.086;14.364;2022-07-12T17:41:22;1.17;;;0.77;;
44098;SDS011;29762;50.086;14.364;2022-07-12T17:46:41;1.90;;;0.70;;
44098;SDS011;29762;50.086;14.364;2022-07-12T17:52:01;2.30;;;0.63;;
44098;SDS011;29762;50.086;14.364;2022-07-12T17:57:20;4.18;;;0.73;;
44098;SDS011;29762;50.086;14.364;2022-07-12T18:02:39;3.70;;;0.70;;
44098;SDS011;29762;50.086;14.364;2022-07-12T18:07:58;2.53;;;0.60;;
44098;SDS011;29762;50.086;14.364;2022-07-12T18:13:18;1.95;;;0.50;;
44098;SDS011;29762;50.086;14.364;2022-07-12T18:18:56;1.33;;;0.70;;
44098;SDS011;29762;50.086;14.364;2022-07-12T18:24:16;4.07;;;2.20;;
44098;SDS011;29762;50.086;14.364;2022-07-12T18:29:35;9.43;;;6.20;;
44098;SDS011;29762;50.086;14.364;2022-07-12T18:34:54;8.30;;;6.05;;
44098;SDS011;29762;50.086;14.364;2022-07-12T18:40:14;8.85;;;6.25;;
44098;SDS011;29762;50.086;14.364;2022-07-12T18:45:34;7.50;;;5.97;;
44098;SDS011;29762;50.086;14.364;2022-07-12T18:50:53;8.70;;;5.30;;
44098;SDS011;29762;50.086;14.364;2022-07-12T18:56:14;6.80;;;4.85;;
44098;SDS011;29762;50.086;14.364;2022-07-12T19:01:34;8.82;;;3.92;;
44098;SDS011;29762;50.086;14.364;2022-07-12T19:06:55;5.50;;;3.45;;
44098;SDS011;29762;50.086;14.364;2022-07-12T19:12:14;5.90;;;3.25;;
44098;SDS011;29762;50.086;14.364;2022-07-12T19:17:34;7.95;;;3.22;;
44098;SDS011;29762;50.086;14.364;2022-07-12T19:22:54;4.20;;;2.88;;
44098;SDS011;29762;50.086;14.364;2022-07-12T19:28:13;8.70;;;3.55;;
44098;SDS011;29762;50.086;14.364;2022-07-12T19:33:32;4.47;;;3.20;;
44098;SDS011;29762;50.086;14.364;2022-07-12T19:38:51;5.50;;;3.28;;
44098;SDS011;29762;50.086;14.364;2022-07-12T19:44:11;5.72;;;3.00;;
44098;SDS011;29762;50.086;14.364;2022-07-12T19:49:30;10.05;;;3.35;;
44098;SDS011;29762;50.086;14.364;2022-07-12T19:54:50;7.07;;;3.10;;
44098;SDS011;29762;50.086;14.364;2022-07-12T20:00:09;4.78;;;2.92;;
44098;SDS011;29762;50.086;14.364;2022-07-12T20:05:34;4.70;;;2.30;;
44098;SDS011;29762;50.086;14.364;2022-07-12T20:10:53;3.30;;;1.83;;
44098;SDS011;29762;50.086;14.364;2022-07-12T20:16:13;3.65;;;1.70;;
44098;SDS011;29762;50.086;14.364;2022-07-12T20:21:32;1.88;;;1.52;;
44098;SDS011;29762;50.086;14.364;2022-07-12T20:26:52;4.20;;;1.60;;
44098;SDS011;29762;50.086;14.364;2022-07-12T20:32:11;2.25;;;1.40;;
44098;SDS011;29762;50.086;14.364;2022-07-12T20:37:31;3.47;;;1.58;;
44098;SDS011;29762;50.086;14.364;2022-07-12T20:42:51;1.58;;;1.40;;
44098;SDS011;29762;50.086;14.364;2022-07-12T20:48:10;2.67;;;1.58;;
44098;SDS011;29762;50.086;14.364;2022-07-12T20:53:30;2.22;;;1.30;;
44098;SDS011;29762;50.086;14.364;2022-07-12T20:58:49;2.60;;;1.40;;
44098;SDS011;29762;50.086;14.364;2022-07-12T21:04:10;2.40;;;1.40;;
44098;SDS011;29762;50.086;14.364;2022-07-12T21:09:29;3.45;;;1.30;;
44098;SDS011;29762;50.086;14.364;2022-07-12T21:14:50;2.22;;;1.30;;
44098;SDS011;29762;50.086;14.364;2022-07-12T21:20:10;1.63;;;1.10;;
44098;SDS011;29762;50.086;14.364;2022-07-12T21:25:30;1.77;;;1.30;;
44098;SDS011;29762;50.086;14.364;2022-07-12T21:30:51;1.42;;;1.20;;
44098;SDS011;29762;50.086;14.364;2022-07-12T21:36:10;2.72;;;1.40;;
44098;SDS011;29762;50.086;14.364;2022-07-12T21:41:31;2.17;;;1.25;;
44098;SDS011;29762;50.086;14.364;2022-07-12T21:46:50;2.10;;;1.20;;
44098;SDS011;29762;50.086;14.364;2022-07-12T21:52:10;1.13;;;1.00;;
44098;SDS011;29762;50.086;14.364;2022-07-12T21:57:29;1.23;;;1.13;;
44098;SDS011;29762;50.086;14.364;2022-07-12T22:02:49;1.42;;;1.17;;
44098;SDS011;29762;50.086;14.364;2022-07-12T22:08:09;1.60;;;1.10;;
44098;SDS011;29762;50.086;14.364;2022-07-12T22:13:28;1.30;;;1.20;;
44098;SDS011;29762;50.086;14.364;2022-07-12T22:18:48;1.55;;;1.20;;
44098;SDS011;29762;50.086;14.364;2022-07-12T22:24:07;1.13;;;1.02;;
44098;SDS011;29762;50.086;14.364;2022-07-12T22:29:26;1.17;;;1.08;;
44098;SDS011;29762;50.086;14.364;2022-07-12T22:34:46;1.63;;;1.00;;
44098;SDS011;29762;50.086;14.364;2022-07-12T22:40:05;1.20;;;1.10;;
44098;SDS011;29762;50.086;14.364;2022-07-12T22:45:25;1.38;;;1.10;;
44098;SDS011;29762;50.086;14.364;2022-07-12T22:50:45;1.30;;;1.00;;
44098;SDS011;29762;50.086;14.364;2022-07-12T22:56:23;1.08;;;0.90;;
44098;SDS011;29762;50.086;14.364;2022-07-12T23:01:43;1.15;;;0.90;;
44098;SDS011;29762;50.086;14.364;2022-07-12T23:07:03;1.08;;;0.95;;
44098;SDS011;29762;50.086;14.364;2022-07-12T23:12:22;1.00;;;0.82;;
44098;SDS011;29762;50.086;14.364;2022-07-12T23:17:41;1.60;;;1.00;;
44098;SDS011;29762;50.086;14.364;2022-07-12T23:23:01;1.25;;;1.10;;
44098;SDS011;29762;50.086;14.364;2022-07-12T23:28:20;1.38;;;1.02;;
44098;SDS011;29762;50.086;14.364;2022-07-12T23:33:40;0.93;;;0.88;;
44098;SDS011;29762;50.086;14.364;2022-07-12T23:38:59;1.05;;;0.95;;
44098;SDS011;29762;50.086;14.364;2022-07-12T23:44:18;0.80;;;0.80;;
44098;SDS011;29762;50.086;14.364;2022-07-12T23:49:38;1.10;;;0.98;;
44098;SDS011;29762;50.086;14.364;2022-07-12T23:54:57;0.80;;;0.70;;
